createdAt,value
2019-05-15T00:00:03.111Z,10.40
2019-05-15T00:03:08.585Z,10.20
2019-05-15T00:06:13.174Z,9.90
2019-05-15T00:09:19.071Z,9.80
2019-05-15T00:12:23.626Z,9.70
2019-05-15T00:15:27.996Z,9.70
2019-05-15T00:18:32.287Z,9.50
2019-05-15T00:21:38.257Z,9.60
2019-05-15T00:24:42.932Z,9.60
2019-05-15T00:27:49.115Z,9.50
2019-05-15T00:30:53.275Z,9.50
2019-05-15T00:33:58.929Z,9.50
2019-05-15T00:37:03.346Z,9.40
2019-05-15T00:40:08.810Z,9.40
2019-05-15T00:43:13.434Z,9.30
2019-05-15T00:46:18.300Z,9.20
2019-05-15T00:49:22.774Z,9.20
2019-05-15T00:52:28.283Z,9.20
2019-05-15T00:55:32.730Z,9.10
2019-05-15T00:58:36.971Z,9.10
2019-05-15T01:01:41.388Z,9.10
2019-05-15T01:04:47.870Z,9.00
2019-05-15T01:07:51.720Z,8.80
2019-05-15T01:10:58.076Z,8.60
2019-05-15T01:14:01.958Z,8.50
2019-05-15T01:17:06.194Z,8.40
2019-05-15T01:20:10.605Z,8.30
2019-05-15T01:23:14.877Z,8.30
2019-05-15T01:26:19.158Z,8.40
2019-05-15T01:29:36.493Z,8.40
2019-05-15T01:32:30.300Z,8.40
2019-05-15T01:35:34.485Z,8.40
2019-05-15T01:38:39.087Z,8.40
2019-05-15T01:41:43.810Z,8.30
2019-05-15T01:44:48.556Z,8.30
2019-05-15T01:47:52.934Z,8.30
2019-05-15T01:50:58.574Z,8.30
2019-05-15T01:54:03.084Z,8.20
2019-05-15T01:57:09.346Z,8.20
2019-05-15T02:00:13.622Z,8.30
2019-05-15T02:03:18.334Z,8.40
2019-05-15T02:06:23.172Z,8.30
2019-05-15T02:09:28.026Z,8.00
2019-05-15T02:12:32.341Z,8.10
2019-05-15T02:15:39.128Z,8.10
2019-05-15T02:18:42.702Z,8.10
2019-05-15T02:21:48.669Z,8.00
2019-05-15T02:24:53.074Z,7.90
2019-05-15T02:27:58.745Z,8.00
2019-05-15T02:31:22.125Z,8.10
2019-05-15T02:34:29.714Z,8.10
2019-05-15T02:37:32.788Z,8.00
2019-05-15T02:40:40.119Z,8.00
2019-05-15T02:43:43.038Z,7.90
2019-05-15T02:46:50.036Z,7.70
2019-05-15T02:49:53.242Z,7.70
2019-05-15T02:53:00.577Z,7.70
2019-05-15T02:56:03.570Z,7.70
2019-05-15T02:59:09.254Z,7.70
2019-05-15T03:02:13.643Z,7.50
2019-05-15T03:05:19.552Z,7.50
2019-05-15T03:08:24.015Z,7.50
2019-05-15T03:11:29.465Z,7.40
2019-05-15T03:14:34.017Z,7.50
2019-05-15T03:17:40.482Z,7.60
2019-05-15T03:20:44.243Z,7.60
2019-05-15T03:23:50.647Z,7.50
2019-05-15T03:26:54.893Z,7.50
2019-05-15T03:29:59.428Z,7.60
2019-05-15T03:33:15.631Z,7.50
2019-05-15T03:36:13.466Z,7.60
2019-05-15T03:39:18.851Z,7.50
2019-05-15T03:42:22.362Z,7.40
2019-05-15T03:45:29.436Z,7.40
2019-05-15T03:48:32.937Z,7.50
2019-05-15T03:51:42.487Z,7.40
2019-05-15T03:54:43.436Z,7.30
2019-05-15T03:57:49.962Z,7.10
2019-05-15T04:00:53.725Z,7.00
2019-05-15T04:03:59.794Z,7.00
2019-05-15T04:07:03.929Z,6.90
2019-05-15T04:10:09.910Z,6.90
2019-05-15T04:13:14.340Z,6.90
2019-05-15T04:16:21.646Z,7.00
2019-05-15T04:19:26.097Z,7.00
2019-05-15T04:22:30.294Z,7.10
2019-05-15T04:25:35.334Z,7.10
2019-05-15T04:28:42.017Z,7.20
2019-05-15T04:31:55.618Z,7.30
2019-05-15T04:34:52.473Z,7.60
2019-05-15T04:37:59.433Z,7.90
2019-05-15T04:41:02.779Z,8.10
2019-05-15T04:44:09.950Z,8.20
2019-05-15T04:47:13.040Z,8.40
2019-05-15T04:50:19.327Z,8.50
2019-05-15T04:53:23.699Z,8.70
2019-05-15T04:56:29.333Z,8.80
2019-05-15T04:59:33.969Z,8.90
2019-05-15T05:02:40.186Z,9.00
2019-05-15T05:05:44.192Z,8.90
2019-05-15T05:08:49.297Z,9.10
2019-05-15T05:11:53.553Z,9.20
2019-05-15T05:14:58.761Z,9.30
2019-05-15T05:18:03.078Z,9.40
2019-05-15T05:21:07.819Z,9.40
2019-05-15T05:24:12.197Z,9.40
2019-05-15T05:27:18.271Z,9.40
2019-05-15T05:30:22.345Z,9.50
2019-05-15T05:33:28.653Z,9.50
2019-05-15T05:36:32.563Z,9.70
2019-05-15T05:39:39.290Z,9.60
2019-05-15T05:42:42.744Z,9.50
2019-05-15T05:45:49.152Z,9.60
2019-05-15T05:48:53.015Z,9.60
2019-05-15T05:51:58.726Z,9.80
2019-05-15T05:55:03.178Z,9.80
2019-05-15T05:58:08.216Z,9.80
2019-05-15T06:01:12.477Z,9.80
2019-05-15T06:04:18.631Z,9.70
2019-05-15T06:07:22.873Z,9.90
2019-05-15T06:10:29.351Z,10.20
2019-05-15T06:13:33.246Z,10.40
2019-05-15T06:16:38.709Z,10.40
2019-05-15T06:19:43.173Z,10.70
2019-05-15T06:22:47.912Z,10.80
2019-05-15T06:25:52.238Z,10.70
2019-05-15T06:28:58.344Z,10.60
2019-05-15T06:32:02.615Z,10.70
2019-05-15T06:35:08.734Z,10.90
2019-05-15T06:38:13.217Z,11.10
2019-05-15T06:41:18.093Z,11.10
2019-05-15T06:44:22.719Z,11.30
2019-05-15T06:47:28.408Z,11.50
2019-05-15T06:50:34.896Z,11.60
2019-05-15T06:53:39.200Z,11.70
2019-05-15T06:56:43.463Z,11.80
2019-05-15T06:59:48.414Z,11.90
2019-05-15T07:02:52.936Z,12.00
2019-05-15T07:05:59.827Z,12.00
2019-05-15T07:09:04.591Z,11.90
2019-05-15T07:12:08.831Z,12.10
2019-05-15T07:15:13.026Z,12.00
2019-05-15T07:18:19.678Z,12.00
2019-05-15T07:21:23.244Z,12.00
2019-05-15T07:24:28.931Z,12.10
2019-05-15T07:27:33.254Z,12.20
2019-05-15T07:30:41.113Z,12.40
2019-05-15T07:33:44.133Z,12.60
2019-05-15T07:36:49.617Z,12.70
2019-05-15T07:39:53.821Z,12.70
2019-05-15T07:42:58.672Z,12.80
2019-05-15T07:46:03.126Z,12.80
2019-05-15T07:49:09.080Z,13.20
2019-05-15T07:52:13.475Z,13.00
2019-05-15T07:55:18.439Z,12.90
2019-05-15T07:58:22.864Z,13.10
2019-05-15T08:01:29.084Z,12.90
2019-05-15T08:04:33.262Z,12.90
2019-05-15T08:07:38.834Z,13.30
2019-05-15T08:10:43.307Z,13.50
2019-05-15T08:13:48.681Z,13.80
2019-05-15T08:16:53.201Z,13.90
2019-05-15T08:19:58.243Z,14.00
2019-05-15T08:23:03.027Z,14.20
2019-05-15T08:26:08.831Z,14.20
2019-05-15T08:29:13.465Z,14.40
2019-05-15T08:32:19.074Z,14.40
2019-05-15T08:35:23.531Z,14.60
2019-05-15T08:38:28.735Z,14.70
2019-05-15T08:41:33.282Z,14.70
2019-05-15T08:44:38.663Z,14.80
2019-05-15T08:47:43.253Z,14.90
2019-05-15T08:50:48.764Z,14.90
2019-05-15T08:53:53.220Z,14.90
2019-05-15T08:56:59.155Z,15.10
2019-05-15T09:00:09.755Z,15.10
2019-05-15T09:03:13.876Z,15.00
2019-05-15T09:06:22.347Z,15.10
2019-05-15T09:09:24.097Z,15.30
2019-05-15T09:12:29.477Z,15.20
2019-05-15T09:15:34.079Z,15.10
2019-05-15T09:18:39.191Z,15.00
2019-05-15T09:21:43.842Z,14.80
2019-05-15T09:24:48.861Z,14.70
2019-05-15T09:27:53.455Z,14.60
2019-05-15T09:30:59.056Z,14.60
2019-05-15T09:34:03.626Z,14.70
2019-05-15T09:37:08.544Z,14.70
2019-05-15T09:40:13.036Z,14.80
2019-05-15T09:43:18.198Z,14.80
2019-05-15T09:46:22.952Z,14.60
2019-05-15T09:49:28.580Z,14.50
2019-05-15T09:52:32.920Z,14.50
2019-05-15T09:55:38.182Z,14.50
2019-05-15T09:58:42.831Z,14.30
2019-05-15T10:01:48.333Z,14.40
2019-05-15T10:05:06.102Z,14.50
2019-05-15T10:07:58.772Z,14.40
2019-05-15T10:11:03.016Z,14.30
2019-05-15T10:14:09.588Z,14.40
2019-05-15T10:17:13.484Z,14.40
2019-05-15T10:20:18.451Z,14.50
2019-05-15T10:23:23.001Z,14.30
2019-05-15T10:26:28.526Z,14.40
2019-05-15T10:29:32.951Z,14.50
2019-05-15T10:32:39.543Z,14.50
2019-05-15T10:35:44.383Z,14.50
2019-05-15T10:38:48.969Z,14.50
2019-05-15T10:41:53.580Z,14.60
2019-05-15T10:44:58.891Z,14.60
2019-05-15T10:48:03.282Z,14.60
2019-05-15T10:51:10.206Z,14.60
2019-05-15T10:54:13.413Z,14.60
2019-05-15T10:57:18.850Z,14.50
2019-05-15T11:00:23.576Z,14.50
2019-05-15T11:03:29.804Z,14.80
2019-05-15T11:06:33.786Z,14.60
2019-05-15T11:09:40.595Z,14.70
2019-05-15T11:12:44.816Z,14.80
2019-05-15T11:15:49.517Z,14.80
2019-05-15T11:18:53.815Z,14.80
2019-05-15T11:21:58.408Z,14.80
2019-05-15T11:25:02.732Z,14.70
2019-05-15T11:28:08.275Z,14.90
2019-05-15T11:31:12.622Z,14.80
2019-05-15T11:34:18.645Z,14.80
2019-05-15T11:37:22.862Z,14.90
2019-05-15T11:40:28.366Z,15.00
2019-05-15T11:43:32.778Z,15.00
2019-05-15T11:46:39.088Z,15.00
2019-05-15T11:49:42.960Z,15.00
2019-05-15T11:52:47.304Z,14.90
2019-05-15T11:55:51.522Z,14.90
2019-05-15T11:58:55.885Z,15.00
2019-05-15T12:02:00.503Z,15.00
2019-05-15T12:05:04.966Z,15.00
2019-05-15T12:08:12.445Z,15.00
2019-05-15T12:11:28.756Z,15.00
2019-05-15T12:14:21.125Z,15.00
2019-05-15T12:17:25.308Z,14.90
2019-05-15T12:20:29.544Z,15.00
2019-05-15T12:23:33.729Z,15.00
2019-05-15T12:26:39.398Z,15.00
2019-05-15T12:29:44.128Z,14.90
2019-05-15T12:32:49.395Z,14.90
2019-05-15T12:35:53.790Z,14.80
2019-05-15T12:38:58.150Z,15.00
2019-05-15T13:00:39.359Z,15.10
2019-05-15T13:03:43.594Z,15.20
2019-05-15T13:07:10.145Z,15.20
2019-05-15T13:09:53.938Z,15.20
2019-05-15T13:13:05.000Z,15.20
2019-05-15T13:16:04.100Z,15.30
2019-05-15T13:19:08.443Z,15.20
2019-05-15T13:22:18.905Z,15.30
2019-05-15T13:25:18.984Z,15.20
2019-05-15T13:28:35.341Z,15.10
2019-05-15T13:31:39.557Z,15.30
2019-05-15T13:34:43.914Z,15.30
2019-05-15T13:37:49.536Z,15.30
2019-05-15T13:40:54.085Z,15.30
2019-05-15T13:43:58.528Z,15.40
2019-05-15T13:47:02.865Z,15.30
2019-05-15T13:50:07.922Z,15.40
2019-05-15T13:53:12.311Z,15.40
2019-05-15T13:56:18.226Z,15.30
2019-05-15T13:59:22.806Z,15.40
2019-05-15T14:02:28.117Z,15.40
2019-05-15T14:05:32.826Z,15.40
2019-05-15T14:08:38.287Z,15.50
2019-05-15T14:11:42.872Z,15.50
2019-05-15T14:14:49.040Z,15.40
2019-05-15T14:17:53.140Z,15.40
2019-05-15T14:20:58.488Z,15.60
2019-05-15T14:24:03.016Z,15.60
2019-05-15T14:27:08.627Z,15.50
2019-05-15T14:30:13.649Z,15.50
2019-05-15T14:33:19.454Z,15.60
2019-05-15T14:36:23.865Z,15.60
2019-05-15T14:39:28.142Z,15.60
2019-05-15T14:42:32.367Z,15.60
2019-05-15T14:45:38.915Z,15.50
2019-05-15T14:48:42.631Z,15.50
2019-05-15T14:51:48.424Z,15.70
2019-05-15T14:54:52.756Z,15.60
2019-05-15T14:57:58.826Z,15.70
2019-05-15T15:01:04.306Z,15.70
2019-05-15T15:04:09.007Z,15.80
2019-05-15T15:07:13.910Z,15.70
2019-05-15T15:10:20.187Z,15.60
2019-05-15T15:13:24.203Z,15.70
2019-05-15T15:16:29.196Z,15.70
2019-05-15T15:19:33.582Z,15.70
2019-05-15T15:22:39.421Z,15.70
2019-05-15T15:25:43.830Z,15.70
2019-05-15T15:28:48.953Z,15.70
2019-05-15T15:31:53.479Z,15.70
2019-05-15T15:34:58.669Z,15.80
2019-05-15T15:38:03.228Z,15.70
2019-05-15T15:41:08.551Z,15.80
2019-05-15T15:44:12.949Z,15.80
2019-05-15T15:47:17.219Z,15.80
2019-05-15T15:50:21.634Z,15.70
2019-05-15T15:53:28.407Z,15.80
2019-05-15T15:56:31.933Z,15.70
2019-05-15T15:59:38.410Z,15.70
2019-05-15T16:02:42.235Z,15.60
2019-05-15T16:05:48.766Z,15.70
2019-05-15T16:08:55.750Z,15.70
2019-05-15T16:11:58.412Z,15.60
2019-05-15T16:15:02.918Z,15.70
2019-05-15T16:18:08.886Z,15.60
2019-05-15T16:21:13.464Z,15.60
2019-05-15T16:24:21.423Z,15.60
2019-05-15T16:27:24.178Z,15.60
2019-05-15T16:30:28.444Z,15.60
2019-05-15T16:33:32.736Z,15.60
2019-05-15T16:36:38.490Z,15.70
2019-05-15T16:39:43.034Z,15.70
2019-05-15T16:42:48.875Z,15.70
2019-05-15T16:45:53.338Z,15.70
2019-05-15T16:48:58.356Z,15.60
2019-05-15T16:52:03.051Z,15.70
2019-05-15T16:55:09.357Z,15.70
2019-05-15T16:58:14.177Z,15.60
2019-05-15T17:01:18.818Z,15.60
2019-05-15T17:04:23.180Z,15.60
2019-05-15T17:07:29.027Z,15.60
2019-05-15T17:10:33.477Z,15.60
2019-05-15T17:13:39.428Z,15.60
2019-05-15T17:16:43.806Z,15.60
2019-05-15T17:19:48.500Z,15.50
2019-05-15T17:22:52.882Z,15.50
2019-05-15T17:25:58.130Z,15.50
2019-05-15T17:29:02.694Z,15.50
2019-05-15T17:32:08.559Z,15.40
2019-05-15T17:35:12.993Z,15.40
2019-05-15T17:38:18.245Z,15.50
2019-05-15T17:41:22.898Z,15.50
2019-05-15T17:44:28.704Z,15.50
2019-05-15T17:47:33.171Z,15.50
2019-05-15T17:50:48.491Z,15.40
2019-05-15T17:53:43.538Z,15.50
2019-05-15T17:56:48.839Z,15.40
2019-05-15T17:59:53.519Z,15.40
2019-05-15T18:02:57.835Z,15.30
2019-05-15T18:06:02.167Z,15.30
2019-05-15T18:09:08.677Z,15.30
2019-05-15T18:12:13.317Z,15.30
2019-05-15T18:15:18.197Z,15.30
2019-05-15T18:18:22.497Z,15.20
2019-05-15T18:21:28.882Z,15.20
2019-05-15T18:24:33.080Z,15.10
2019-05-15T18:27:38.853Z,15.10
2019-05-15T18:30:55.518Z,15.00
2019-05-15T18:33:59.937Z,15.00
2019-05-15T18:37:04.425Z,14.90
2019-05-15T18:40:09.899Z,14.90
2019-05-15T18:43:14.723Z,14.80
2019-05-15T18:46:19.086Z,14.80
2019-05-15T18:49:23.552Z,14.70
2019-05-15T18:52:28.737Z,14.60
2019-05-15T18:55:33.258Z,14.60
2019-05-15T18:58:38.140Z,14.50
2019-05-15T19:01:42.779Z,14.50
2019-05-15T19:04:49.078Z,14.50
2019-05-15T19:07:53.212Z,14.40
2019-05-15T19:10:58.434Z,14.40
2019-05-15T19:14:03.062Z,14.40
2019-05-15T19:17:08.254Z,14.40
2019-05-15T19:20:13.062Z,14.30
2019-05-15T19:23:18.214Z,14.20
2019-05-15T19:26:22.535Z,14.10
2019-05-15T19:29:28.476Z,14.10
2019-05-15T19:32:32.962Z,14.10
2019-05-15T19:35:38.722Z,14.00
2019-05-15T19:38:47.926Z,14.00
2019-05-15T19:41:52.055Z,13.90
2019-05-15T19:44:58.818Z,13.90
2019-05-15T19:48:02.490Z,13.90
2019-05-15T19:51:09.036Z,13.90
2019-05-15T19:54:13.012Z,13.80
2019-05-15T19:57:18.641Z,13.70
2019-05-15T20:00:22.990Z,13.70
2019-05-15T20:03:28.393Z,13.70
2019-05-15T20:06:32.820Z,13.60
2019-05-15T20:09:38.363Z,13.60
2019-05-15T20:12:42.835Z,13.50
2019-05-15T20:15:48.604Z,13.50
2019-05-15T20:18:52.949Z,13.50
2019-05-15T20:21:58.321Z,13.40
2019-05-15T20:25:02.648Z,13.30
2019-05-15T20:28:08.445Z,13.20
2019-05-15T20:31:12.862Z,13.20
2019-05-15T20:34:17.169Z,13.20
2019-05-15T20:37:21.455Z,13.10
2019-05-15T20:40:25.786Z,13.10
2019-05-15T20:43:30.048Z,13.10
2019-05-15T20:46:34.640Z,13.10
2019-05-15T20:49:38.900Z,13.00
2019-05-15T20:52:43.847Z,13.00
2019-05-15T20:55:48.479Z,13.00
2019-05-15T20:58:52.922Z,12.90
2019-05-15T21:01:59.319Z,12.90
2019-05-15T21:05:03.203Z,12.90
2019-05-15T21:08:07.573Z,12.90
2019-05-15T21:11:12.291Z,12.80
2019-05-15T21:14:16.610Z,12.80
2019-05-15T21:17:20.986Z,12.80
2019-05-15T21:20:25.247Z,12.80
2019-05-15T21:23:29.546Z,12.80
2019-05-15T21:26:33.882Z,12.80
2019-05-15T21:29:40.417Z,12.70
2019-05-15T21:32:44.144Z,12.70
2019-05-15T21:35:48.466Z,12.60
2019-05-15T21:38:52.861Z,12.60
2019-05-15T21:41:58.319Z,12.60
2019-05-15T21:45:02.794Z,12.50
2019-05-15T21:48:09.064Z,12.40
2019-05-15T21:51:13.080Z,12.40
2019-05-15T21:54:17.934Z,12.30
2019-05-15T21:57:32.813Z,12.30
2019-05-15T22:00:35.053Z,12.30
2019-05-15T22:03:39.387Z,12.30
2019-05-15T22:06:43.694Z,12.30
2019-05-15T22:09:48.752Z,12.30
2019-05-15T22:12:53.181Z,12.30
2019-05-15T22:15:59.265Z,12.20
2019-05-15T22:19:03.382Z,12.20
2019-05-15T22:22:08.774Z,12.20
2019-05-15T22:25:13.832Z,12.10
2019-05-15T22:28:18.100Z,12.10
2019-05-15T22:31:22.363Z,12.10
2019-05-15T22:34:28.497Z,12.10
2019-05-15T22:37:32.822Z,11.90
2019-05-15T22:40:38.021Z,11.70
2019-05-15T22:43:42.703Z,11.50
2019-05-15T22:46:48.718Z,11.50
2019-05-15T22:49:53.059Z,11.40
2019-05-15T22:52:58.755Z,11.50
2019-05-15T22:56:03.217Z,11.50
2019-05-15T22:59:08.551Z,11.60
2019-05-15T23:02:13.207Z,11.60
2019-05-15T23:05:26.923Z,11.60
2019-05-15T23:08:23.489Z,11.50
2019-05-15T23:11:29.879Z,11.40
2019-05-15T23:14:34.006Z,11.30
2019-05-15T23:17:38.517Z,11.30
2019-05-15T23:20:43.153Z,11.30
2019-05-15T23:23:48.709Z,11.30
2019-05-15T23:26:53.234Z,11.30
2019-05-15T23:29:58.218Z,11.20
2019-05-15T23:33:02.652Z,11.20
2019-05-15T23:36:06.847Z,11.10
2019-05-15T23:39:11.139Z,10.90
2019-05-15T23:42:15.327Z,11.00
2019-05-15T23:45:39.068Z,10.90
2019-05-15T23:48:43.522Z,10.90
2019-05-15T23:51:48.804Z,10.90
2019-05-15T23:54:53.204Z,10.90
2019-05-15T23:57:58.400Z,10.90
